sensor_id;sensor_type;location;lat;lon;timestamp;pressure;altitude;pressure_sealevel;temperature;humidity
3832;BME280;12460;42.662;23.288;2023-04-23T00:05:02;94485.22;;;11.30;57.76
3832;BME280;12460;42.662;23.288;2023-04-23T00:20:10;94488.16;;;11.15;57.62
3832;BME280;12460;42.662;23.288;2023-04-23T00:35:15;94487.34;;;11.05;58.05
3832;BME280;12460;42.662;23.288;2023-04-23T00:50:19;94475.13;;;10.85;57.76
3832;BME280;12460;42.662;23.288;2023-04-23T01:05:24;94487.72;;;10.84;58.17
3832;BME280;12460;42.662;23.288;2023-04-23T01:20:29;94486.72;;;10.65;59.12
3832;BME280;12460;42.662;23.288;2023-04-23T01:35:36;94480.03;;;10.52;58.98
3832;BME280;12460;42.662;23.288;2023-04-23T01:50:41;94494.50;;;10.49;59.59
3832;BME280;12460;42.662;23.288;2023-04-23T02:05:47;94506.03;;;10.36;60.49
3832;BME280;12460;42.662;23.288;2023-04-23T02:20:53;94505.94;;;10.19;60.29
3832;BME280;12460;42.662;23.288;2023-04-23T02:35:58;94498.47;;;10.06;60.11
3832;BME280;12460;42.662;23.288;2023-04-23T02:51:03;94503.31;;;10.13;60.10
3832;BME280;12460;42.662;23.288;2023-04-23T03:06:08;94511.94;;;10.15;60.26
3832;BME280;12460;42.662;23.288;2023-04-23T03:21:13;94511.59;;;10.04;59.72
3832;BME280;12460;42.662;23.288;2023-04-23T03:36:17;94521.53;;;9.97;59.82
3832;BME280;12460;42.662;23.288;2023-04-23T03:51:23;94515.81;;;10.60;59.09
3832;BME280;12460;42.662;23.288;2023-04-23T04:06:28;94525.56;;;13.25;53.25
3832;BME280;12460;42.662;23.288;2023-04-23T04:21:34;94529.53;;;15.96;46.57
3832;BME280;12460;42.662;23.288;2023-04-23T04:36:39;94541.81;;;16.52;44.81
3832;BME280;12460;42.662;23.288;2023-04-23T04:51:46;94552.81;;;17.14;42.69
3832;BME280;12460;42.662;23.288;2023-04-23T05:06:49;94567.94;;;18.09;40.48
3832;BME280;12460;42.662;23.288;2023-04-23T05:21:54;94555.28;;;19.11;38.92
3832;BME280;12460;42.662;23.288;2023-04-23T05:36:58;94570.53;;;18.65;39.43
3832;BME280;12460;42.662;23.288;2023-04-23T05:52:03;94565.81;;;18.95;39.55
3832;BME280;12460;42.662;23.288;2023-04-23T06:07:07;94573.72;;;19.60;38.56
3832;BME280;12460;42.662;23.288;2023-04-23T06:22:12;94564.47;;;20.70;36.49
3832;BME280;12460;42.662;23.288;2023-04-23T06:37:16;94562.41;;;22.07;34.37
3832;BME280;12460;42.662;23.288;2023-04-23T06:52:20;94565.97;;;22.72;33.61
3832;BME280;12460;42.662;23.288;2023-04-23T07:07:24;94556.34;;;21.84;34.43
3832;BME280;12460;42.662;23.288;2023-04-23T07:22:28;94545.38;;;23.66;32.47
3832;BME280;12460;42.662;23.288;2023-04-23T07:37:33;94541.94;;;23.52;32.14
3832;BME280;12460;42.662;23.288;2023-04-23T07:52:38;94550.66;;;22.66;34.24
3832;BME280;12460;42.662;23.288;2023-04-23T08:07:43;94544.38;;;23.05;33.17
3832;BME280;12460;42.662;23.288;2023-04-23T08:22:48;94542.22;;;24.76;30.80
3832;BME280;12460;42.662;23.288;2023-04-23T08:37:53;94524.88;;;24.95;29.35
3832;BME280;12460;42.662;23.288;2023-04-23T08:52:59;94506.97;;;25.66;29.05
3832;BME280;12460;42.662;23.288;2023-04-23T09:08:06;94501.56;;;23.11;32.01
3832;BME280;12460;42.662;23.288;2023-04-23T09:23:13;94500.31;;;23.16;31.76
3832;BME280;12460;42.662;23.288;2023-04-23T09:38:19;94497.59;;;21.36;34.67
3832;BME280;12460;42.662;23.288;2023-04-23T09:53:25;94468.94;;;23.77;31.09
3832;BME280;12460;42.662;23.288;2023-04-23T10:08:30;94447.47;;;24.60;29.13
3832;BME280;12460;42.662;23.288;2023-04-23T10:23:37;94429.66;;;23.63;30.42
3832;BME280;12460;42.662;23.288;2023-04-23T10:38:44;94418.22;;;25.60;27.55
3832;BME280;12460;42.662;23.288;2023-04-23T10:54:04;94399.34;;;25.81;26.46
3832;BME280;12460;42.662;23.288;2023-04-23T11:09:27;94378.19;;;24.31;26.87
3832;BME280;12460;42.662;23.288;2023-04-23T11:24:37;94356.34;;;25.14;24.93
3832;BME280;12460;42.662;23.288;2023-04-23T11:39:52;94343.81;;;23.52;26.51
3832;BME280;12460;42.662;23.288;2023-04-23T11:55:02;94323.97;;;24.21;24.41
3832;BME280;12460;42.662;23.288;2023-04-23T12:10:06;94317.31;;;23.34;24.78
3832;BME280;12460;42.662;23.288;2023-04-23T12:25:11;94309.53;;;22.97;24.06
3832;BME280;12460;42.662;23.288;2023-04-23T12:40:16;94293.38;;;22.31;22.40
3832;BME280;12460;42.662;23.288;2023-04-23T12:55:22;94289.41;;;21.19;26.03
3832;BME280;12460;42.662;23.288;2023-04-23T13:10:27;94292.47;;;21.07;26.98
3832;BME280;12460;42.662;23.288;2023-04-23T13:25:33;94285.84;;;21.36;26.56
3832;BME280;12460;42.662;23.288;2023-04-23T13:40:39;94266.41;;;20.52;26.98
3832;BME280;12460;42.662;23.288;2023-04-23T13:55:43;94258.22;;;21.09;26.09
3832;BME280;12460;42.662;23.288;2023-04-23T14:10:48;94265.09;;;20.71;28.17
3832;BME280;12460;42.662;23.288;2023-04-23T14:26:05;94252.03;;;20.35;26.89
3832;BME280;12460;42.662;23.288;2023-04-23T14:41:12;94256.63;;;18.96;29.80
3832;BME280;12460;42.662;23.288;2023-04-23T14:56:16;94249.03;;;18.87;30.32
3832;BME280;12460;42.662;23.288;2023-04-23T15:11:21;94243.16;;;19.25;32.33
3832;BME280;12460;42.662;23.288;2023-04-23T15:26:26;94227.41;;;18.68;33.26
3832;BME280;12460;42.662;23.288;2023-04-23T15:41:32;94227.41;;;18.81;32.36
3832;BME280;12460;42.662;23.288;2023-04-23T15:56:37;94222.63;;;18.86;31.81
3832;BME280;12460;42.662;23.288;2023-04-23T16:11:42;94214.31;;;18.63;31.79
3832;BME280;12460;42.662;23.288;2023-04-23T16:26:47;94212.50;;;18.42;33.89
3832;BME280;12460;42.662;23.288;2023-04-23T16:41:51;94213.50;;;17.94;36.63
3832;BME280;12460;42.662;23.288;2023-04-23T16:56:56;94209.97;;;17.43;39.03
3832;BME280;12460;42.662;23.288;2023-04-23T17:12:01;94202.28;;;16.84;41.23
3832;BME280;12460;42.662;23.288;2023-04-23T17:27:06;94224.94;;;16.36;42.48
3832;BME280;12460;42.662;23.288;2023-04-23T17:42:11;94234.06;;;16.23;42.46
3832;BME280;12460;42.662;23.288;2023-04-23T17:57:16;94247.38;;;15.97;43.02
3832;BME280;12460;42.662;23.288;2023-04-23T18:12:21;94273.13;;;15.78;43.32
3832;BME280;12460;42.662;23.288;2023-04-23T18:27:26;94291.63;;;15.79;42.71
3832;BME280;12460;42.662;23.288;2023-04-23T18:42:29;94287.72;;;15.51;43.55
3832;BME280;12460;42.662;23.288;2023-04-23T18:57:39;94302.44;;;15.17;44.42
3832;BME280;12460;42.662;23.288;2023-04-23T19:12:44;94305.09;;;14.82;44.30
3832;BME280;12460;42.662;23.288;2023-04-23T19:27:49;94301.84;;;14.76;44.89
3832;BME280;12460;42.662;23.288;2023-04-23T19:42:54;94306.47;;;14.72;45.57
3832;BME280;12460;42.662;23.288;2023-04-23T19:57:59;94303.44;;;14.58;46.28
3832;BME280;12460;42.662;23.288;2023-04-23T20:13:04;94311.69;;;14.44;46.68
3832;BME280;12460;42.662;23.288;2023-04-23T20:28:09;94304.44;;;14.32;46.30
3832;BME280;12460;42.662;23.288;2023-04-23T20:43:16;94309.16;;;14.08;47.05
3832;BME280;12460;42.662;23.288;2023-04-23T20:58:22;94317.25;;;13.83;47.32
3832;BME280;12460;42.662;23.288;2023-04-23T21:13:26;94324.88;;;13.71;47.78
3832;BME280;12460;42.662;23.288;2023-04-23T21:28:33;94344.81;;;13.54;47.93
3832;BME280;12460;42.662;23.288;2023-04-23T21:43:39;94335.91;;;13.48;48.41
3832;BME280;12460;42.662;23.288;2023-04-23T21:58:44;94368.16;;;13.45;49.12
3832;BME280;12460;42.662;23.288;2023-04-23T22:13:48;94379.75;;;13.49;49.10
3832;BME280;12460;42.662;23.288;2023-04-23T22:28:53;94337.09;;;13.45;49.51
3832;BME280;12460;42.662;23.288;2023-04-23T22:43:58;94314.31;;;12.85;51.76
3832;BME280;12460;42.662;23.288;2023-04-23T22:59:03;94333.06;;;12.90;51.20
3832;BME280;12460;42.662;23.288;2023-04-23T23:14:08;94352.09;;;13.38;50.42
3832;BME280;12460;42.662;23.288;2023-04-23T23:29:14;94327.84;;;13.63;49.84
3832;BME280;12460;42.662;23.288;2023-04-23T23:44:19;94304.41;;;13.13;50.66
3832;BME280;12460;42.662;23.288;2023-04-23T23:59:23;94283.28;;;12.95;50.95
